createdAt,value
2018-04-13T00:00:02.932Z,10.6
2018-04-13T00:05:03.379Z,10.5
2018-04-13T00:10:02.447Z,10.3
2018-04-13T00:15:03.373Z,10.3
2018-04-13T00:20:02.419Z,10.5
2018-04-13T00:25:02.455Z,10.3
2018-04-13T00:30:02.429Z,10.3
2018-04-13T00:35:02.394Z,10.3
2018-04-13T00:40:02.416Z,10.5
2018-04-13T00:45:03.400Z,10.6
2018-04-13T00:50:03.374Z,10.5
2018-04-13T00:55:03.408Z,10.5
2018-04-13T01:00:02.388Z,10.8
2018-04-13T01:05:02.404Z,10.5
2018-04-13T01:10:02.414Z,10.6
2018-04-13T01:15:03.411Z,10.1
2018-04-13T01:20:02.409Z,10.3
2018-04-13T01:25:02.483Z,10.1
2018-04-13T01:30:02.453Z,10.1
2018-04-13T01:35:02.432Z,10.0
2018-04-13T01:40:02.436Z,10.0
2018-04-13T01:45:02.449Z,9.8
2018-04-13T01:50:02.422Z,9.6
2018-04-13T01:55:02.606Z,9.5
2018-04-13T02:00:02.548Z,9.5
2018-04-13T02:05:02.517Z,9.5
2018-04-13T02:10:02.516Z,9.5
2018-04-13T02:15:02.515Z,9.5
2018-04-13T02:20:02.506Z,9.5
2018-04-13T02:25:03.127Z,9.0
2018-04-13T02:30:02.763Z,9.0
2018-04-13T02:35:03.367Z,8.8
2018-04-13T02:40:02.961Z,9.0
2018-04-13T02:45:02.564Z,8.8
2018-04-13T02:50:03.205Z,9.1
2018-04-13T02:55:02.766Z,9.0
2018-04-13T03:00:03.484Z,8.6
2018-04-13T03:05:03.103Z,8.5
2018-04-13T03:10:02.781Z,8.1
2018-04-13T03:15:03.384Z,8.1
2018-04-13T03:20:02.921Z,8.0
2018-04-13T03:25:02.442Z,8.0
2018-04-13T03:30:03.064Z,7.9
2018-04-13T03:35:02.811Z,7.9
2018-04-13T03:40:02.428Z,7.6
2018-04-13T03:45:02.964Z,7.1
2018-04-13T03:50:02.566Z,7.0
2018-04-13T03:55:03.123Z,6.6
2018-04-13T04:00:02.616Z,6.5
2018-04-13T04:05:03.219Z,6.6
2018-04-13T04:10:02.800Z,6.5
2018-04-13T04:15:03.322Z,6.5
2018-04-13T04:20:02.959Z,6.6
2018-04-13T04:25:02.548Z,6.5
2018-04-13T04:30:02.505Z,6.5
2018-04-13T04:35:03.109Z,6.6
2018-04-13T04:40:02.756Z,6.6
2018-04-13T04:45:03.385Z,6.6
2018-04-13T04:50:02.872Z,7.0
2018-04-13T04:55:02.418Z,7.0
2018-04-13T05:00:03.080Z,7.0
2018-04-13T05:05:02.665Z,6.9
2018-04-13T05:10:03.341Z,6.9
2018-04-13T05:15:02.875Z,6.9
2018-04-13T05:20:02.547Z,7.0
2018-04-13T05:25:03.105Z,7.0
2018-04-13T05:30:02.620Z,6.9
2018-04-13T05:35:03.232Z,6.9
2018-04-13T05:40:02.801Z,6.9
2018-04-13T05:45:02.437Z,6.6
2018-04-13T05:50:03.073Z,6.6
2018-04-13T05:55:02.619Z,6.6
2018-04-13T06:00:03.129Z,6.4
2018-04-13T06:05:02.704Z,6.5
2018-04-13T06:10:03.288Z,6.5
2018-04-13T06:15:02.898Z,6.6
2018-04-13T06:20:02.512Z,6.9
2018-04-13T06:25:03.091Z,7.1
2018-04-13T06:30:02.611Z,7.6
2018-04-13T06:35:03.261Z,7.9
2018-04-13T06:40:02.875Z,8.3
2018-04-13T06:45:02.486Z,8.5
2018-04-13T06:50:03.268Z,8.6
2018-04-13T06:55:02.824Z,9.1
2018-04-13T07:00:03.393Z,9.3
2018-04-13T07:05:02.951Z,9.0
2018-04-13T07:10:02.658Z,9.3
2018-04-13T07:15:03.224Z,10.0
2018-04-13T07:20:02.840Z,10.1
2018-04-13T07:25:02.462Z,10.5
2018-04-13T07:30:03.486Z,10.8
2018-04-13T07:35:03.142Z,11.1
2018-04-13T07:40:02.761Z,11.3
2018-04-13T07:45:02.435Z,11.6
2018-04-13T07:50:03.005Z,11.8
2018-04-13T07:55:02.609Z,12.1
2018-04-13T08:00:03.152Z,12.0
2018-04-13T08:05:02.721Z,12.1
2018-04-13T08:10:03.351Z,12.3
2018-04-13T08:15:02.931Z,12.6
2018-04-13T08:20:02.571Z,12.6
2018-04-13T08:25:03.134Z,12.3
2018-04-13T08:30:02.687Z,12.6
2018-04-13T08:35:02.408Z,13.3
2018-04-13T08:40:03.113Z,13.8
2018-04-13T08:45:02.677Z,13.8
2018-04-13T08:50:03.306Z,14.0
2018-04-13T08:55:02.876Z,14.3
2018-04-13T09:00:02.595Z,14.5
2018-04-13T09:05:03.258Z,14.5
2018-04-13T09:10:02.973Z,14.6
2018-04-13T09:15:02.686Z,14.3
2018-04-13T09:20:03.359Z,14.6
2018-04-13T09:25:02.934Z,14.8
2018-04-13T09:30:02.476Z,14.5
2018-04-13T09:35:03.071Z,15.6
2018-04-13T09:40:02.764Z,15.8
2018-04-13T09:45:02.409Z,15.1
2018-04-13T09:50:02.998Z,15.6
2018-04-13T09:55:02.589Z,16.2
2018-04-13T10:00:03.230Z,16.2
2018-04-13T10:05:02.785Z,16.3
2018-04-13T10:10:03.406Z,16.0
2018-04-13T10:15:02.978Z,16.2
2018-04-13T10:20:02.622Z,16.0
2018-04-13T10:25:03.276Z,15.8
2018-04-13T10:30:02.828Z,15.8
2018-04-13T10:35:02.478Z,15.5
2018-04-13T10:40:03.136Z,15.3
2018-04-13T10:45:02.650Z,15.6
2018-04-13T10:50:03.252Z,15.3
2018-04-13T10:55:02.802Z,15.6
2018-04-13T11:00:02.422Z,15.6
2018-04-13T11:05:02.967Z,15.8
2018-04-13T11:10:02.624Z,16.2
2018-04-13T11:15:03.207Z,16.2
2018-04-13T11:20:02.839Z,16.2
2018-04-13T11:25:02.448Z,16.2
2018-04-13T11:30:03.036Z,16.3
2018-04-13T11:35:02.686Z,16.3
2018-04-13T11:40:03.441Z,16.3
2018-04-13T11:45:03.004Z,16.7
2018-04-13T11:50:02.633Z,16.6
2018-04-13T11:55:03.242Z,16.2
2018-04-13T12:00:02.833Z,16.2
2018-04-13T12:05:02.455Z,16.2
2018-04-13T12:10:03.206Z,16.3
2018-04-13T12:15:02.818Z,16.7
2018-04-13T12:20:02.445Z,17.2
2018-04-13T12:25:02.995Z,17.7
2018-04-13T12:30:02.633Z,17.3
2018-04-13T12:35:02.397Z,17.7
2018-04-13T12:40:03.042Z,18.1
2018-04-13T12:45:02.662Z,17.3
2018-04-13T12:50:03.253Z,17.2
2018-04-13T12:55:03.151Z,16.6
2018-04-13T13:00:03.136Z,16.7
2018-04-13T13:05:02.715Z,17.1
2018-04-13T13:10:03.328Z,17.5
2018-04-13T13:15:02.893Z,17.7
2018-04-13T13:20:02.512Z,17.3
2018-04-13T13:25:03.198Z,16.7
2018-04-13T13:30:02.801Z,16.2
2018-04-13T13:35:03.400Z,16.2
2018-04-13T13:40:03.042Z,16.2
2018-04-13T13:45:02.636Z,16.2
2018-04-13T13:50:03.371Z,16.3
2018-04-13T13:55:02.957Z,16.2
2018-04-13T14:00:02.523Z,16.0
2018-04-13T14:05:03.220Z,16.0
2018-04-13T14:10:02.840Z,15.8
2018-04-13T14:15:02.464Z,16.2
2018-04-13T14:20:03.123Z,16.6
2018-04-13T14:25:02.693Z,16.6
2018-04-13T14:30:03.350Z,16.3
2018-04-13T14:35:03.127Z,15.8
2018-04-13T14:40:02.734Z,15.6
2018-04-13T14:45:03.341Z,15.3
2018-04-13T14:50:03.033Z,15.1
2018-04-13T14:55:02.755Z,15.1
2018-04-13T15:00:03.328Z,15.1
2018-04-13T15:05:02.990Z,15.1
2018-04-13T15:10:02.658Z,15.0
2018-04-13T15:15:03.283Z,14.8
2018-04-13T15:20:03.054Z,14.8
2018-04-13T15:25:02.825Z,14.8
2018-04-13T15:30:02.396Z,14.8
2018-04-13T15:35:03.257Z,15.0
2018-04-13T15:40:02.975Z,15.0
2018-04-13T15:45:03.026Z,15.1
2018-04-13T15:50:02.412Z,15.3
2018-04-13T15:55:03.042Z,15.6
2018-04-13T16:00:02.612Z,15.5
2018-04-13T16:05:03.257Z,15.3
2018-04-13T16:10:03.022Z,15.1
2018-04-13T16:15:02.725Z,15.0
2018-04-13T16:20:02.431Z,14.8
2018-04-13T16:25:03.102Z,14.6
2018-04-13T16:30:02.673Z,14.5
2018-04-13T16:35:03.312Z,14.3
2018-04-13T16:40:02.959Z,14.3
2018-04-13T16:45:02.530Z,14.3
2018-04-13T16:50:03.140Z,14.3
2018-04-13T16:55:02.883Z,14.1
2018-04-13T17:00:02.453Z,14.1
2018-04-13T17:05:03.111Z,14.0
2018-04-13T17:10:02.705Z,14.0
2018-04-13T17:15:03.304Z,13.8
2018-04-13T17:20:02.866Z,13.6
2018-04-13T17:25:02.506Z,13.8
2018-04-13T17:30:03.118Z,13.6
2018-04-13T17:35:02.764Z,13.6
2018-04-13T17:40:03.556Z,13.6
2018-04-13T17:45:03.116Z,13.6
2018-04-13T17:50:02.719Z,13.6
2018-04-13T17:55:03.323Z,13.5
2018-04-13T18:00:02.889Z,13.5
2018-04-13T18:05:02.617Z,13.3
2018-04-13T18:10:03.311Z,13.3
2018-04-13T18:15:02.882Z,13.1
2018-04-13T18:20:02.600Z,13.3
2018-04-13T18:25:03.226Z,13.1
2018-04-13T18:30:02.801Z,13.1
2018-04-13T18:35:02.522Z,13.1
2018-04-13T18:40:03.195Z,13.1
2018-04-13T18:45:02.793Z,12.8
2018-04-13T18:50:02.432Z,12.8
2018-04-13T18:55:03.068Z,12.8
2018-04-13T19:00:02.631Z,12.8
2018-04-13T19:05:03.252Z,12.8
2018-04-13T19:10:02.890Z,12.6
2018-04-13T19:15:02.462Z,12.6
2018-04-13T19:20:03.098Z,12.8
2018-04-13T19:25:02.683Z,12.6
2018-04-13T19:30:03.270Z,12.6
2018-04-13T19:35:02.850Z,12.5
2018-04-13T19:40:02.516Z,12.3
2018-04-13T19:45:03.124Z,12.5
2018-04-13T19:50:02.787Z,12.5
2018-04-13T19:55:02.501Z,12.5
2018-04-13T20:00:03.324Z,12.5
2018-04-13T20:05:02.952Z,12.3
2018-04-13T20:10:02.698Z,12.1
2018-04-13T20:15:03.269Z,12.1
2018-04-13T20:20:02.995Z,12.1
2018-04-13T20:25:02.633Z,12.1
2018-04-13T20:30:03.241Z,12.1
2018-04-13T20:35:02.841Z,12.1
2018-04-13T20:40:02.597Z,12.1
2018-04-13T20:45:03.206Z,12.1
2018-04-13T20:50:02.818Z,12.1
2018-04-13T20:55:02.397Z,12.0
2018-04-13T21:00:03.035Z,12.1
2018-04-13T21:05:02.571Z,12.1
2018-04-13T21:10:03.148Z,12.1
2018-04-13T21:15:02.718Z,12.0
2018-04-13T21:20:02.422Z,12.0
2018-04-13T21:25:02.946Z,11.8
2018-04-13T21:30:02.646Z,11.8
2018-04-13T21:35:03.180Z,11.6
2018-04-13T21:40:02.807Z,11.8
2018-04-13T21:45:03.378Z,11.6
2018-04-13T21:50:02.932Z,11.6
2018-04-13T21:55:02.519Z,11.6
2018-04-13T22:00:03.085Z,11.3
2018-04-13T22:05:02.681Z,11.3
2018-04-13T22:10:03.348Z,11.3
2018-04-13T22:15:02.970Z,11.3
2018-04-13T22:20:02.611Z,11.1
2018-04-13T22:25:03.197Z,11.0
2018-04-13T22:30:02.795Z,11.0
2018-04-13T22:35:03.386Z,10.8
2018-04-13T22:40:02.961Z,11.0
2018-04-13T22:45:02.572Z,11.1
2018-04-13T22:50:03.255Z,11.1
2018-04-13T22:55:02.792Z,11.0
2018-04-13T23:00:02.399Z,11.0
2018-04-13T23:05:02.438Z,11.0
2018-04-13T23:10:03.199Z,10.8
2018-04-13T23:15:02.781Z,10.8
2018-04-13T23:20:02.566Z,11.0
2018-04-13T23:25:03.164Z,10.8
2018-04-13T23:30:02.847Z,10.8
2018-04-13T23:35:02.510Z,10.6
2018-04-13T23:40:03.242Z,10.5
2018-04-13T23:45:02.761Z,10.5
2018-04-13T23:50:03.321Z,10.6
2018-04-13T23:55:02.953Z,10.8
